Time;durP1;ratioP1;P1;durP2;ratioP2;P2;SDS_P1;SDS_P2;PMS_P1;PMS_P2;Temp;Humidity;BMP_temperature;BMP_pressure;BME280_temperature;BME280_humidity;BME280_pressure;Samples;Min_cycle;Max_cycle;Signal;HPM_P1;HPM_P2
2020/12/16 00:02:20;;;;;;;39.60;22.55;;;;;;;6.90;67.81;95850.66;5089535;28;20286;-63
2020/12/16 00:04:47;;;;;;;35.22;20.92;;;;;;;6.86;67.95;95859.91;5092546;28;20188;-67
2020/12/16 00:07:14;;;;;;;40.42;20.95;;;;;;;6.86;68.01;95854.69;5093061;28;20233;-67
2020/12/16 00:09:41;;;;;;;36.10;20.58;;;;;;;6.88;67.57;95860.50;5089142;28;20214;-67
2020/12/16 00:12:08;;;;;;;35.75;20.15;;;;;;;6.69;68.15;95845.78;5089585;28;20225;-66
2020/12/16 00:14:34;;;;;;;37.38;19.55;;;;;;;6.76;68.03;95856.16;5088829;28;20199;-65
2020/12/16 00:17:01;;;;;;;37.35;20.77;;;;;;;6.78;67.95;95856.75;5089498;28;20218;-66
2020/12/16 00:19:27;;;;;;;37.78;21.27;;;;;;;6.76;67.97;95859.56;5088642;28;20222;-65
2020/12/16 00:21:58;;;;;;;37.30;21.23;;;;;;;6.79;67.97;95856.53;5089408;28;20195;-65
2020/12/16 00:24:25;;;;;;;36.65;21.65;;;;;;;6.81;67.75;95857.13;5089094;28;20198;-62
2020/12/16 00:26:51;;;;;;;39.35;22.17;;;;;;;6.87;67.35;95845.06;5089685;28;20187;-67
2020/12/16 00:29:18;;;;;;;34.88;20.77;;;;;;;6.93;67.54;95857.28;5088497;28;20191;-66
2020/12/16 00:31:44;;;;;;;34.05;20.42;;;;;;;6.88;67.24;95865.69;5089218;28;20308;-63
2020/12/16 00:34:11;;;;;;;32.88;18.10;;;;;;;6.72;67.50;95862.78;5088366;28;20226;-63
2020/12/16 00:36:38;;;;;;;32.00;19.13;;;;;;;6.74;66.98;95856.38;5088759;28;20589;-62
2020/12/16 00:39:06;;;;;;;30.38;18.80;;;;;;;6.76;67.03;95856.97;5088983;28;20202;-66
2020/12/16 00:41:33;;;;;;;33.47;19.02;;;;;;;6.71;67.15;95854.19;5093010;28;20207;-63
2020/12/16 00:44:00;;;;;;;33.65;19.52;;;;;;;6.61;67.83;95846.00;5092501;28;20203;-66
2020/12/16 00:46:28;;;;;;;36.67;20.52;;;;;;;6.74;67.55;95851.16;5092934;28;20262;-65
2020/12/16 00:48:54;;;;;;;39.53;20.63;;;;;;;6.76;67.48;95848.34;5091314;28;20392;-65
2020/12/16 00:51:21;;;;;;;34.17;19.80;;;;;;;6.72;67.21;95847.94;5092800;28;20195;-65
2020/12/16 00:53:50;;;;;;;37.13;20.27;;;;;;;6.65;66.88;95846.38;5091082;28;20245;-68
2020/12/16 00:56:16;;;;;;;34.72;18.10;;;;;;;6.58;67.31;95846.44;5091245;28;20199;-65
2020/12/16 00:58:43;;;;;;;34.80;19.02;;;;;;;6.41;67.98;95834.88;5090722;28;20218;-66
2020/12/16 01:01:10;;;;;;;33.13;18.80;;;;;;;6.55;67.86;95841.63;5092434;28;20332;-64
2020/12/16 01:03:37;;;;;;;32.35;18.20;;;;;;;6.42;67.96;95833.06;5090501;28;20687;-65
2020/12/16 01:06:03;;;;;;;33.20;18.40;;;;;;;6.52;67.82;95842.03;5092621;28;20199;-63
2020/12/16 01:08:31;;;;;;;34.92;18.73;;;;;;;6.54;67.94;95836.63;5090009;28;20256;-65
2020/12/16 01:10:59;;;;;;;32.97;19.02;;;;;;;6.54;68.10;95840.03;5092279;28;20215;-66
2020/12/16 01:13:30;;;;;;;30.33;17.65;;;;;;;6.60;67.90;95839.22;5090311;28;20796;-67
2020/12/16 01:15:57;;;;;;;30.60;16.23;;;;;;;6.31;68.17;95839.72;5091081;28;20199;-67
2020/12/16 01:18:23;;;;;;;31.40;17.52;;;;;;;6.09;69.00;95838.41;5091704;28;20199;-64
2020/12/16 01:20:54;;;;;;;30.45;16.45;;;;;;;6.22;68.61;95838.38;5090975;28;20211;-65
2020/12/16 01:23:32;;;;;;;32.63;16.40;;;;;;;6.03;69.28;95839.19;5090290;28;20560;-66
2020/12/16 01:25:59;;;;;;;29.17;16.52;;;;;;;6.10;69.15;95842.59;5092600;28;20279;-66
2020/12/16 01:28:28;;;;;;;31.10;16.98;;;;;;;5.82;69.87;95839.44;5090207;28;20207;-66
2020/12/16 01:30:59;;;;;;;33.40;16.92;;;;;;;5.84;69.35;95821.81;5090922;28;20252;-64
2020/12/16 01:33:26;;;;;;;30.65;16.15;;;;;;;5.56;70.93;95835.06;5090025;28;20246;-64
2020/12/16 01:36:04;;;;;;;32.03;16.70;;;;;;;5.48;71.44;95831.84;5090677;28;20203;-64
2020/12/16 01:38:33;;;;;;;34.13;17.50;;;;;;;5.41;71.60;95836.25;5094307;28;20233;-68
2020/12/16 01:41:06;;;;;;;34.97;17.52;;;;;;;5.20;72.96;95828.66;5092404;28;20230;-66
2020/12/16 01:43:46;;;;;;;34.83;16.88;;;;;;;5.19;72.72;95838.25;5089868;28;20252;-65
2020/12/16 01:46:17;;;;;;;34.40;16.67;;;;;;;5.14;73.07;95831.06;5091937;28;20195;-65
2020/12/16 01:48:44;;;;;;;31.75;16.70;;;;;;;4.97;73.97;95827.22;5090062;28;20230;-65
2020/12/16 01:51:18;;;;;;;41.13;20.23;;;;;;;5.08;74.12;95836.22;5091018;28;20628;-61
2020/12/16 01:53:51;;;;;;;40.47;19.50;;;;;;;4.97;74.42;95816.03;5089573;28;20223;-68
2020/12/16 01:56:20;;;;;;;38.78;19.60;;;;;;;4.94;75.05;95830.25;5090585;28;20199;-65
2020/12/16 01:58:58;;;;;;;40.88;19.38;;;;;;;4.68;76.34;95824.16;5090068;28;20210;-66
2020/12/16 02:01:30;;;;;;;38.50;18.95;;;;;;;4.77;75.86;95826.41;5089254;28;20209;-66
2020/12/16 02:04:00;;;;;;;45.15;21.02;;;;;;;5.02;75.94;95832.63;5090980;28;20187;-65
2020/12/16 02:06:34;;;;;;;48.63;22.10;;;;;;;5.22;75.43;95832.63;5090346;28;20293;-64
2020/12/16 02:09:07;;;;;;;47.60;21.80;;;;;;;4.94;75.67;95822.44;5089549;28;20202;-64
2020/12/16 02:11:41;;;;;;;48.83;23.10;;;;;;;5.30;75.23;95829.84;5089634;28;20199;-68
2020/12/16 02:14:17;;;;;;;48.13;22.52;;;;;;;5.16;75.48;95836.06;5088860;28;20211;-68
2020/12/16 02:16:48;;;;;;;47.47;22.67;;;;;;;5.07;76.02;95835.41;5090063;28;20206;-67
2020/12/16 02:19:20;;;;;;;48.35;23.25;;;;;;;5.09;75.94;95836.03;5089289;28;20588;-66
2020/12/16 02:22:06;;;;;;;48.33;21.75;;;;;;;4.90;76.21;95829.03;5090115;28;20203;-66
2020/12/16 02:24:38;;;;;;;47.88;23.17;;;;;;;4.97;76.11;95834.22;5090278;28;20237;-67
2020/12/16 02:27:04;;;;;;;44.72;20.92;;;;;;;4.91;76.33;95835.00;5089976;28;20544;-67
2020/12/16 02:29:32;;;;;;;48.13;21.13;;;;;;;4.95;76.42;95838.81;5090373;28;20199;-65
2020/12/16 02:32:06;;;;;;;48.78;21.23;;;;;;;4.83;76.89;95836.00;5089380;28;20664;-65
2020/12/16 02:34:33;;;;;;;42.58;19.67;;;;;;;4.89;75.85;95840.41;5088739;28;20292;-64
2020/12/16 02:37:02;;;;;;;44.17;20.70;;;;;;;4.88;76.27;95836.22;5089659;28;20209;-62
2020/12/16 02:39:41;;;;;;;45.75;22.30;;;;;;;4.88;76.57;95841.41;5088691;28;20661;-65
2020/12/16 02:42:23;;;;;;;54.65;26.00;;;;;;;5.09;76.29;95838.63;5089281;28;20217;-67
2020/12/16 02:44:51;;;;;;;50.60;23.67;;;;;;;5.17;75.43;95840.25;5089947;28;20732;-67
2020/12/16 02:47:40;;;;;;;52.70;22.70;;;;;;;5.27;74.91;95842.44;5089569;28;20215;-67
2020/12/16 02:50:15;;;;;;;48.70;22.92;;;;;;;5.57;74.15;95841.03;5088803;28;20271;-66
2020/12/16 02:52:46;;;;;;;46.33;21.45;;;;;;;5.62;73.78;95833.44;5088843;28;20222;-66
2020/12/16 02:55:16;;;;;;;46.45;22.13;;;;;;;5.76;73.59;95835.03;5088366;28;20203;-65
2020/12/16 02:58:02;;;;;;;50.55;23.17;;;;;;;5.90;73.35;95841.81;5089111;28;20596;-64
2020/12/16 03:00:29;;;;;;;43.55;21.92;;;;;;;5.90;73.00;95831.41;5088266;28;20701;-65
2020/12/16 03:03:11;;;;;;;41.78;21.08;;;;;;;5.91;72.25;95838.25;5089018;28;20290;-66
2020/12/16 03:06:14;;;;;;;40.88;20.65;;;;;;;5.98;72.26;95834.63;5084528;28;20326;-67
2020/12/16 03:08:50;;;;;;;45.13;21.00;;;;;;;6.10;72.00;95837.38;5089614;28;20222;-64
2020/12/16 03:11:18;;;;;;;40.88;19.17;;;;;;;6.09;71.79;95830.59;5094610;28;20203;-64
2020/12/16 03:13:50;;;;;;;36.85;17.73;;;;;;;5.96;71.67;95835.81;5088945;28;20321;-66
2020/12/16 03:16:18;;;;;;;37.25;18.02;;;;;;;5.93;71.71;95846.66;5088978;28;20214;-66
2020/12/16 03:18:44;;;;;;;42.45;19.00;;;;;;;5.96;71.38;95835.81;5088337;28;20260;-66
2020/12/16 03:21:12;;;;;;;36.75;17.73;;;;;;;5.95;71.32;95840.22;5088453;28;20235;-67
2020/12/16 03:23:38;;;;;;;34.72;17.05;;;;;;;6.07;71.14;95845.59;5089687;28;21048;-66
2020/12/16 03:26:28;;;;;;;35.17;16.23;;;;;;;6.09;71.20;95849.56;5088454;28;20336;-71
2020/12/16 03:29:15;;;;;;;35.58;16.23;;;;;;;6.01;70.79;95849.00;5085343;28;20210;-67
2020/12/16 03:32:20;;;;;;;36.55;17.52;;;;;;;5.90;71.08;95857.44;5083958;28;20221;-68
2020/12/16 03:35:06;;;;;;;35.65;18.08;;;;;;;5.80;71.48;95855.22;5089607;28;20210;-67
2020/12/16 03:37:33;;;;;;;36.33;17.65;;;;;;;5.95;71.17;95850.63;5088483;28;20294;-67
2020/12/16 03:40:01;;;;;;;34.88;16.27;;;;;;;5.87;72.04;95860.44;5087969;28;20230;-63
2020/12/16 03:42:35;;;;;;;34.80;16.77;;;;;;;5.71;71.71;95829.63;5087947;28;20540;-63
2020/12/16 03:45:03;;;;;;;38.33;17.83;;;;;;;5.78;71.99;95859.03;5087877;28;20187;-66
2020/12/16 03:47:34;;;;;;;31.95;15.82;;;;;;;5.69;72.33;95855.81;5088247;28;20218;-65
2020/12/16 03:50:01;;;;;;;34.63;16.73;;;;;;;5.74;72.55;95857.84;5087810;28;20279;-68
2020/12/16 03:52:28;;;;;;;32.33;16.15;;;;;;;5.69;72.47;95860.25;5088037;28;20225;-64
2020/12/16 03:55:08;;;;;;;30.65;14.68;;;;;;;5.54;72.79;95851.84;5087599;28;20632;-64
2020/12/16 03:58:04;;;;;;;25.13;13.05;;;;;;;5.54;72.64;95867.44;5088328;28;20207;-66
2020/12/16 04:00:50;;;;;;;28.52;14.73;;;;;;;5.63;72.41;95861.84;5088175;28;20197;-69
2020/12/16 04:03:18;;;;;;;30.35;14.52;;;;;;;5.55;72.37;95863.81;5087859;28;20233;-67
2020/12/16 04:05:55;;;;;;;29.35;14.77;;;;;;;5.44;72.67;95872.25;5087953;28;20199;-66
2020/12/16 04:08:21;;;;;;;29.42;14.32;;;;;;;5.23;73.55;95867.22;5087902;28;20203;-63
2020/12/16 04:11:11;;;;;;;28.75;14.85;;;;;;;5.42;73.11;95874.25;5088840;28;20641;-66
2020/12/16 04:13:40;;;;;;;31.55;14.48;;;;;;;5.20;74.06;95875.44;5087302;28;20339;-67
2020/12/16 04:16:19;;;;;;;28.42;14.07;;;;;;;5.24;73.67;95861.81;5092185;28;20230;-66
2020/12/16 04:18:50;;;;;;;28.80;13.93;;;;;;;5.31;73.66;95869.63;5091393;28;20299;-66
2020/12/16 04:21:19;;;;;;;25.75;13.00;;;;;;;5.19;73.59;95874.63;5093310;28;20191;-65
2020/12/16 04:23:47;;;;;;;29.17;14.15;;;;;;;5.25;73.54;95867.81;5092749;28;20610;-69
2020/12/16 04:26:25;;;;;;;25.90;12.45;;;;;;;5.40;73.17;95881.44;5091832;28;20584;-63
2020/12/16 04:28:55;;;;;;;27.55;13.57;;;;;;;5.43;73.28;95883.63;5091472;28;20297;-67
2020/12/16 04:31:22;;;;;;;25.45;12.82;;;;;;;5.46;73.03;95881.44;5093413;28;20264;-66
2020/12/16 04:33:48;;;;;;;30.80;13.27;;;;;;;5.43;73.15;95891.44;5091155;28;20284;-66
2020/12/16 04:36:15;;;;;;;25.15;13.32;;;;;;;5.33;73.27;95891.03;5091633;28;20191;-65
2020/12/16 04:38:44;;;;;;;25.67;12.90;;;;;;;5.34;73.54;95903.81;5091377;28;20210;-68
2020/12/16 04:41:11;;;;;;;18.92;10.48;;;;;;;5.21;73.29;95898.59;5091586;28;20700;-62
2020/12/16 04:43:43;;;;;;;17.40;9.57;;;;;;;5.03;73.49;95901.78;5090793;28;20254;-65
2020/12/16 04:46:18;;;;;;;18.08;9.85;;;;;;;5.25;72.87;95902.41;5091700;28;20203;-67
2020/12/16 04:48:46;;;;;;;19.77;10.50;;;;;;;5.30;72.94;95904.41;5090880;28;20214;-63
2020/12/16 04:51:33;;;;;;;18.40;9.95;;;;;;;5.39;72.18;95905.81;5091354;28;20224;-65
2020/12/16 04:54:02;;;;;;;19.52;10.60;;;;;;;5.35;72.75;95909.81;5090772;28;20887;-65
2020/12/16 04:56:35;;;;;;;20.98;11.32;;;;;;;5.39;72.26;95911.00;5091578;28;20232;-64
2020/12/16 04:59:10;;;;;;;20.27;10.77;;;;;;;5.43;72.33;95913.03;5090713;28;20191;-65
2020/12/16 05:01:51;;;;;;;20.00;10.93;;;;;;;5.42;72.13;95915.84;5091219;28;20286;-68
2020/12/16 05:04:22;;;;;;;21.88;10.68;;;;;;;5.38;72.23;95917.22;5090670;28;20348;-66
2020/12/16 05:06:54;;;;;;;22.23;12.13;;;;;;;5.36;72.58;95916.63;5091963;28;20238;-66
2020/12/16 05:09:21;;;;;;;22.33;12.18;;;;;;;5.36;72.43;95919.22;5088537;28;20207;-71
2020/12/16 05:11:50;;;;;;;19.45;10.18;;;;;;;5.26;73.00;95927.38;5090609;28;20199;-69
2020/12/16 05:14:21;;;;;;;20.20;10.30;;;;;;;5.27;73.15;95917.81;5091945;28;20268;-69
2020/12/16 05:17:03;;;;;;;22.23;10.88;;;;;;;5.38;72.63;95925.03;5092411;28;20195;-70
2020/12/16 05:19:40;;;;;;;22.33;11.95;;;;;;;5.43;72.54;95922.63;5090832;28;20202;-68
2020/12/16 05:22:16;;;;;;;24.60;10.38;;;;;;;5.29;73.00;95928.81;5092320;28;20666;-71
2020/12/16 05:24:44;;;;;;;19.00;8.90;;;;;;;5.23;72.65;95904.41;5091397;28;20282;-69
2020/12/16 05:27:21;;;;;;;19.67;9.40;;;;;;;5.43;72.58;95943.41;5094093;28;20668;-67
2020/12/16 05:29:50;;;;;;;19.55;9.75;;;;;;;5.31;73.02;95945.78;5091732;28;20275;-67
2020/12/16 05:32:25;;;;;;;24.00;10.93;;;;;;;5.30;73.06;95948.59;5092006;28;20305;-67
2020/12/16 05:34:53;;;;;;;22.80;10.93;;;;;;;5.37;72.84;95944.19;5091282;28;20178;-69
2020/12/16 05:37:36;;;;;;;24.60;11.23;;;;;;;5.20;72.96;95924.78;5091398;28;20191;-70
2020/12/16 05:40:06;;;;;;;20.05;10.05;;;;;;;5.33;72.83;95948.22;5090978;28;20195;-68
2020/12/16 05:42:33;;;;;;;22.75;11.70;;;;;;;5.43;72.63;95948.59;5091905;28;20260;-66
2020/12/16 05:45:24;;;;;;;22.80;11.52;;;;;;;5.36;72.72;95932.22;5090956;28;20221;-65
2020/12/16 05:48:05;;;;;;;24.55;12.75;;;;;;;5.44;72.68;95956.22;5091105;28;20219;-68
2020/12/16 05:50:33;;;;;;;23.88;12.13;;;;;;;5.36;72.67;95956.41;5089828;28;20203;-68
2020/12/16 05:53:11;;;;;;;22.10;11.40;;;;;;;5.30;72.45;95959.78;5090960;28;20221;-67
2020/12/16 05:56:02;;;;;;;25.23;11.52;;;;;;;5.35;72.74;95966.97;5091293;28;20207;-65
2020/12/16 05:58:31;;;;;;;21.75;10.80;;;;;;;5.49;72.51;95963.44;5091191;28;20191;-67
2020/12/16 06:01:01;;;;;;;19.45;11.18;;;;;;;5.50;72.50;95971.03;5091844;28;20206;-65
2020/12/16 06:03:31;;;;;;;19.77;10.90;;;;;;;5.52;71.95;95963.03;5091161;28;20277;-67
2020/12/16 06:05:58;;;;;;;20.88;11.63;;;;;;;5.47;72.49;95965.41;5091601;28;20218;-69
2020/12/16 06:08:28;;;;;;;23.10;12.38;;;;;;;5.47;72.26;95971.44;5090624;28;20294;-66
2020/12/16 06:10:55;;;;;;;22.38;11.40;;;;;;;5.55;72.23;95968.63;5091372;28;20203;-62
2020/12/16 06:13:22;;;;;;;16.77;9.65;;;;;;;5.44;72.17;95976.22;5091312;28;20219;-66
2020/12/16 06:15:56;;;;;;;17.30;8.75;;;;;;;5.48;72.35;95977.41;5095944;28;20307;-69
2020/12/16 06:18:29;;;;;;;18.58;10.00;;;;;;;5.42;72.14;95983.41;5093311;28;20214;-64
2020/12/16 06:20:57;;;;;;;24.00;12.40;;;;;;;4.83;73.10;95976.22;5091135;28;20206;-63
2020/12/16 06:23:29;;;;;;;21.65;10.02;;;;;;;4.40;74.55;95986.97;5090706;28;20192;-63
2020/12/16 06:26:09;;;;;;;21.83;11.00;;;;;;;4.10;76.47;95996.75;5090737;28;20195;-69
2020/12/16 06:28:36;;;;;;;20.98;10.60;;;;;;;4.18;76.35;95994.00;5090568;28;20199;-67
2020/12/16 06:31:20;;;;;;;17.48;8.25;;;;;;;4.11;76.46;96003.53;5090777;28;20184;-63
2020/12/16 06:34:00;;;;;;;17.95;8.30;;;;;;;4.01;76.33;95997.88;5090271;28;20238;-65
2020/12/16 06:36:29;;;;;;;16.35;8.32;;;;;;;3.97;76.62;96000.03;5090300;28;20275;-67
2020/12/16 06:38:57;;;;;;;16.63;8.77;;;;;;;4.00;76.49;96001.44;5090453;28;20187;-65
2020/12/16 06:41:25;;;;;;;16.58;8.70;;;;;;;3.99;76.94;96005.03;5090620;28;20215;-67
2020/12/16 06:43:54;;;;;;;13.68;7.82;;;;;;;3.98;76.36;96009.41;5090116;28;20229;-64
2020/12/16 06:46:40;;;;;;;17.50;9.13;;;;;;;4.23;76.48;96001.22;5090160;28;20237;-66
2020/12/16 06:49:23;;;;;;;14.32;7.95;;;;;;;4.06;76.69;96005.88;5090209;28;20191;-64
2020/12/16 06:52:03;;;;;;;20.58;11.30;;;;;;;4.42;75.87;96006.53;5091155;28;20191;-65
2020/12/16 06:54:36;;;;;;;19.13;10.35;;;;;;;4.60;77.43;96004.25;5085350;28;20225;-65
2020/12/16 06:57:29;;;;;;;23.17;11.50;;;;;;;5.05;77.02;95998.47;5087260;28;20205;-65
2020/12/16 07:00:00;;;;;;;19.15;10.50;;;;;;;5.18;75.50;95996.94;5087552;28;20206;-65
2020/12/16 07:02:32;;;;;;;19.58;10.40;;;;;;;5.25;74.13;95997.75;5089507;28;20191;-64
2020/12/16 07:05:00;;;;;;;22.75;11.25;;;;;;;4.98;73.81;96002.84;5089836;28;20288;-64
2020/12/16 07:07:41;;;;;;;20.50;9.73;;;;;;;4.99;73.31;96003.66;5090024;28;20234;-65
2020/12/16 07:10:36;;;;;;;13.07;7.65;;;;;;;4.83;73.32;96009.16;5089181;28;20198;-68
2020/12/16 07:13:22;;;;;;;19.73;10.13;;;;;;;4.62;73.53;96012.66;5089811;28;20763;-66
2020/12/16 07:15:54;;;;;;;131.77;83.50;;;;;;;4.80;74.19;95999.19;5089724;28;20187;-65
2020/12/16 07:18:24;;;;;;;43.58;27.60;;;;;;;4.79;74.05;96008.75;5090000;28;20187;-68
2020/12/16 07:20:57;;;;;;;18.38;9.90;;;;;;;4.74;73.61;96005.94;5085453;28;20187;-69
2020/12/16 07:23:28;;;;;;;17.30;9.13;;;;;;;4.82;73.37;96002.34;5089023;28;20584;-67
2020/12/16 07:26:01;;;;;;;13.82;8.68;;;;;;;4.69;73.27;95992.72;5088288;28;20306;-66
2020/12/16 07:28:40;;;;;;;14.25;9.50;;;;;;;4.64;73.30;96004.66;5089370;28;20187;-68
2020/12/16 07:31:07;;;;;;;18.85;10.55;;;;;;;4.66;74.04;95998.31;5088881;28;20191;-68
2020/12/16 07:33:33;;;;;;;19.92;10.88;;;;;;;4.75;73.75;95997.16;5088510;28;20230;-66
2020/12/16 07:36:01;;;;;;;37.80;23.70;;;;;;;4.89;74.07;96003.22;5088936;28;20210;-64
2020/12/16 07:38:27;;;;;;;34.28;23.48;;;;;;;4.82;73.94;96003.16;5088432;28;20664;-65
2020/12/16 07:40:55;;;;;;;46.80;22.80;;;;;;;4.85;73.18;96010.56;5089512;28;20191;-66
2020/12/16 07:43:23;;;;;;;18.35;9.68;;;;;;;4.39;74.07;96001.75;5088559;28;20191;-68
2020/12/16 07:46:07;;;;;;;14.68;9.20;;;;;;;4.77;73.79;96005.56;5088950;28;20194;-70
2020/12/16 07:48:35;;;;;;;17.25;9.45;;;;;;;4.94;73.57;96006.84;5087966;28;20187;-65
2020/12/16 07:51:06;;;;;;;18.13;10.23;;;;;;;5.08;73.23;96003.28;5089603;28;20274;-63
2020/12/16 07:53:35;;;;;;;20.92;12.05;;;;;;;5.26;72.73;96014.94;5090464;28;20665;-69
2020/12/16 07:56:04;;;;;;;14.13;8.55;;;;;;;5.32;72.15;96004.56;5088569;28;20633;-69
2020/12/16 07:58:31;;;;;;;16.67;9.35;;;;;;;5.22;71.99;96008.53;5088350;28;20497;-69
2020/12/16 08:01:14;;;;;;;17.42;9.05;;;;;;;4.93;73.19;96018.22;5088587;28;20227;-66
2020/12/16 08:03:42;;;;;;;15.85;9.95;;;;;;;5.01;72.46;96020.66;5088645;28;20206;-68
2020/12/16 08:06:09;;;;;;;16.85;9.60;;;;;;;4.77;73.12;96021.13;5088414;28;20203;-69
2020/12/16 08:08:44;;;;;;;20.77;12.18;;;;;;;4.65;73.83;96017.44;5088187;28;20195;-67
2020/12/16 08:11:15;;;;;;;21.27;11.02;;;;;;;4.88;73.47;96014.59;5089046;28;20198;-66
2020/12/16 08:13:41;;;;;;;17.38;10.20;;;;;;;4.75;73.37;96023.13;5088324;28;20288;-71
2020/12/16 08:16:08;;;;;;;17.17;10.57;;;;;;;4.62;73.05;96012.66;5088808;28;20187;-67
2020/12/16 08:18:38;;;;;;;22.48;11.95;;;;;;;4.49;73.98;96022.94;5088761;28;20290;-70
2020/12/16 08:21:22;;;;;;;20.63;11.82;;;;;;;4.42;74.13;96027.31;5088323;28;20226;-70
2020/12/16 08:23:50;;;;;;;16.92;10.73;;;;;;;4.38;74.41;96023.47;5088393;28;20732;-70
2020/12/16 08:26:18;;;;;;;18.30;9.80;;;;;;;4.43;74.71;96034.09;5090351;28;20777;-70
2020/12/16 08:28:46;;;;;;;17.70;10.38;;;;;;;4.45;74.09;96031.31;5089897;28;20190;-67
2020/12/16 08:31:30;;;;;;;15.70;9.85;;;;;;;4.78;73.71;96033.09;5089633;28;20274;-69
2020/12/16 08:33:57;;;;;;;16.73;9.93;;;;;;;4.99;73.09;96030.44;5088446;28;20358;-73
2020/12/16 08:36:25;;;;;;;18.33;10.25;;;;;;;5.18;73.06;96028.09;5088224;28;20290;-72
2020/12/16 08:38:53;;;;;;;17.38;10.82;;;;;;;5.29;72.82;96019.75;5088373;28;20278;-70
2020/12/16 08:41:25;;;;;;;18.58;10.20;;;;;;;5.41;71.75;96024.19;5088884;28;20291;-67
2020/12/16 08:43:53;;;;;;;23.70;11.93;;;;;;;5.45;72.07;96016.78;5088105;28;20811;-68
2020/12/16 08:46:29;;;;;;;21.67;12.45;;;;;;;5.35;71.97;96013.75;5088566;28;20199;-69
2020/12/16 08:49:03;;;;;;;17.77;10.93;;;;;;;5.52;72.32;96017.63;5088039;28;20206;-70
2020/12/16 08:51:34;;;;;;;21.52;12.68;;;;;;;5.58;71.71;96009.03;5088181;28;20697;-66
2020/12/16 08:54:17;;;;;;;19.70;12.00;;;;;;;5.66;71.38;96012.25;5087359;28;20683;-67
2020/12/16 08:56:55;;;;;;;19.33;12.95;;;;;;;5.62;70.83;95999.84;5088577;28;20290;-65
2020/12/16 08:59:27;;;;;;;17.15;11.25;;;;;;;5.69;70.98;96008.47;5087924;28;20322;-69
2020/12/16 09:02:06;;;;;;;22.38;14.80;;;;;;;5.37;71.66;96006.56;5091743;28;20210;-69
2020/12/16 09:04:38;;;;;;;24.40;15.73;;;;;;;5.57;71.11;96007.41;5091471;28;20248;-70
2020/12/16 09:07:22;;;;;;;18.73;11.80;;;;;;;5.81;70.86;95999.06;5091842;28;20218;-68
2020/12/16 09:09:48;;;;;;;17.05;10.50;;;;;;;5.83;70.30;95997.91;5091112;28;20285;-70
2020/12/16 09:12:19;;;;;;;18.58;10.85;;;;;;;5.67;70.21;95993.06;5091860;28;20202;-69
2020/12/16 09:14:55;;;;;;;28.67;17.00;;;;;;;5.86;69.96;95991.47;5091584;28;20305;-71
2020/12/16 09:17:27;;;;;;;20.13;12.38;;;;;;;5.72;71.67;95989.84;5091672;28;20270;-64
2020/12/16 09:19:54;;;;;;;11.68;8.40;;;;;;;5.65;69.89;95989.84;5090812;28;20219;-75
2020/12/16 09:22:25;;;;;;;17.83;10.38;;;;;;;5.59;70.39;95985.44;5091240;28;20187;-69
2020/12/16 09:24:56;;;;;;;13.73;9.50;;;;;;;5.93;69.98;95987.13;5091205;28;20207;-66
2020/12/16 09:27:22;;;;;;;14.18;9.27;;;;;;;5.99;69.68;95981.09;5091563;28;20183;-69
2020/12/16 09:29:49;;;;;;;13.50;9.70;;;;;;;5.73;69.73;95981.84;5090910;28;20210;-69
2020/12/16 09:32:20;;;;;;;61.90;41.72;;;;;;;5.57;71.27;95981.41;5094580;28;20677;-66
2020/12/16 09:34:48;;;;;;;48.05;31.85;;;;;;;5.52;71.32;95976.03;5090432;28;20239;-68
2020/12/16 09:37:16;;;;;;;21.88;12.15;;;;;;;5.30;70.90;95971.97;5091614;28;20233;-70
2020/12/16 09:39:44;;;;;;;16.88;10.55;;;;;;;5.13;71.81;95982.72;5091080;28;20187;-68
2020/12/16 09:42:13;;;;;;;38.42;19.20;;;;;;;5.40;71.15;95969.81;5091075;28;20202;-68
2020/12/16 09:44:40;;;;;;;53.58;28.55;;;;;;;5.59;70.74;95972.44;5090803;28;20217;-68
2020/12/16 09:47:10;;;;;;;23.55;13.57;;;;;;;5.37;71.11;95976.19;5091067;28;20676;-67
2020/12/16 09:49:37;;;;;;;17.10;10.93;;;;;;;5.24;71.26;95970.19;5090157;28;20179;-69
2020/12/16 09:52:03;;;;;;;16.63;10.77;;;;;;;5.09;72.08;95973.72;5090758;28;20290;-67
2020/12/16 09:54:33;;;;;;;19.90;11.23;;;;;;;5.31;71.71;95971.00;5090740;28;20247;-69
2020/12/16 09:57:07;;;;;;;17.65;11.57;;;;;;;5.59;70.97;95963.81;5090789;28;20299;-67
2020/12/16 09:59:34;;;;;;;17.95;10.20;;;;;;;5.79;70.40;95964.66;5090103;28;20626;-68
2020/12/16 10:02:01;;;;;;;16.58;10.48;;;;;;;5.97;70.36;95962.28;5090640;28;20195;-64
2020/12/16 10:04:28;;;;;;;18.00;11.75;;;;;;;5.76;70.42;95962.44;5089829;28;20221;-68
2020/12/16 10:06:54;;;;;;;18.90;11.95;;;;;;;5.67;70.27;95948.03;5090550;28;20206;-72
2020/12/16 10:09:21;;;;;;;21.23;13.15;;;;;;;5.73;70.03;95965.47;5090808;28;20195;-69
2020/12/16 10:11:49;;;;;;;21.25;13.23;;;;;;;5.94;69.81;95952.28;5089996;28;20210;-65
2020/12/16 10:14:17;;;;;;;14.98;10.15;;;;;;;5.59;70.48;95958.63;5090167;28;20215;-70
2020/12/16 10:16:48;;;;;;;15.85;10.70;;;;;;;5.55;70.43;95952.22;5090706;28;20203;-74
2020/12/16 10:19:16;;;;;;;17.50;11.25;;;;;;;5.73;69.96;95952.47;5089901;28;20191;-65
2020/12/16 10:21:49;;;;;;;17.65;11.30;;;;;;;5.86;69.74;95944.66;5090401;28;20203;-68
2020/12/16 10:24:18;;;;;;;15.77;10.70;;;;;;;5.93;69.70;95955.91;5090327;28;20198;-68
2020/12/16 10:26:48;;;;;;;16.10;11.20;;;;;;;6.07;69.38;95942.69;5090296;28;20210;-68
2020/12/16 10:29:16;;;;;;;16.65;11.55;;;;;;;6.01;69.18;95937.47;5090079;28;20290;-68
2020/12/16 10:31:47;;;;;;;17.50;11.23;;;;;;;6.16;69.08;95948.47;5090172;28;20188;-68
2020/12/16 10:34:15;;;;;;;20.38;11.60;;;;;;;5.96;69.35;95940.69;5087594;28;20235;-68
2020/12/16 10:36:41;;;;;;;17.30;11.48;;;;;;;6.19;69.20;95935.03;5090969;28;20194;-66
2020/12/16 10:39:08;;;;;;;17.52;12.52;;;;;;;6.39;68.33;95938.41;5090018;28;20191;-68
2020/12/16 10:41:35;;;;;;;23.50;12.95;;;;;;;6.26;68.43;95941.03;5090903;28;20206;-68
2020/12/16 10:44:03;;;;;;;28.63;20.23;;;;;;;6.20;68.62;95933.25;5090067;28;20737;-71
2020/12/16 10:46:30;;;;;;;68.82;40.90;;;;;;;6.28;68.93;95933.81;5090006;28;20310;-72
2020/12/16 10:48:56;;;;;;;28.77;19.50;;;;;;;6.06;68.71;95903.81;5089873;28;20664;-75
2020/12/16 10:51:26;;;;;;;18.60;12.95;;;;;;;6.30;68.29;95911.00;5090012;28;20202;-67
2020/12/16 10:53:53;;;;;;;21.02;12.55;;;;;;;6.43;67.49;95926.59;5089834;28;20609;-76
2020/12/16 10:56:19;;;;;;;20.42;12.57;;;;;;;6.41;67.59;95912.16;5090372;28;20207;-72
2020/12/16 10:58:48;;;;;;;18.98;13.02;;;;;;;6.48;67.50;95916.34;5089492;28;20206;-78
2020/12/16 11:01:15;;;;;;;20.33;13.05;;;;;;;6.46;67.54;95920.97;5090173;28;20626;-74
2020/12/16 11:03:41;;;;;;;20.88;12.93;;;;;;;6.52;67.33;95914.94;5090989;28;20176;-76
2020/12/16 11:06:09;;;;;;;19.15;12.88;;;;;;;6.60;67.51;95922.53;5090992;28;20929;-72
2020/12/16 11:08:35;;;;;;;18.02;12.85;;;;;;;6.66;66.86;95911.28;5090643;28;20201;-73
2020/12/16 11:11:02;;;;;;;19.33;13.07;;;;;;;6.80;66.92;95915.44;5096297;28;20202;-69
2020/12/16 11:13:29;;;;;;;22.45;13.90;;;;;;;6.71;67.30;95903.66;5091221;28;20323;-78
2020/12/16 11:15:55;;;;;;;20.08;12.68;;;;;;;6.78;67.19;95912.25;5089761;28;20195;-68
2020/12/16 11:18:22;;;;;;;19.27;13.43;;;;;;;6.54;67.25;95918.16;5089359;28;20210;-66
2020/12/16 11:20:48;;;;;;;19.38;13.40;;;;;;;6.71;67.32;95903.66;5089615;28;20206;-76
2020/12/16 11:23:14;;;;;;;24.25;14.25;;;;;;;6.65;67.77;95888.06;5089875;28;20294;-80
2020/12/16 11:25:41;;;;;;;20.35;14.18;;;;;;;6.57;67.22;95903.94;5089179;28;20203;-75
2020/12/16 11:28:08;;;;;;;22.00;14.38;;;;;;;6.55;67.26;95903.31;5089515;28;20205;-74
2020/12/16 11:30:35;;;;;;;28.90;16.10;;;;;;;6.48;67.47;95907.75;5089511;28;20203;-71
2020/12/16 11:33:01;;;;;;;25.23;16.17;;;;;;;6.31;68.12;95907.41;5090523;28;20326;-69
2020/12/16 11:35:28;;;;;;;24.90;15.98;;;;;;;6.40;67.67;95905.38;5090161;28;20167;-70
2020/12/16 11:37:54;;;;;;;70.85;44.72;;;;;;;6.20;68.25;95894.22;5089823;28;20195;-65
2020/12/16 11:40:21;;;;;;;41.03;23.90;;;;;;;6.43;68.48;95895.34;5088984;28;20297;-69
2020/12/16 11:42:47;;;;;;;29.25;17.55;;;;;;;6.55;67.97;95898.91;5089238;28;20696;-78
2020/12/16 11:45:14;;;;;;;24.20;15.85;;;;;;;6.55;68.05;95887.72;5089364;28;20190;-70
2020/12/16 11:47:40;;;;;;;26.65;16.77;;;;;;;6.51;67.87;95896.94;5089323;28;20194;-71